createdAt,value
2022-08-10T00:00:51.568Z,84.61
2022-08-10T00:01:54.553Z,84.84
2022-08-10T00:03:00.575Z,85.11
2022-08-10T00:04:02.896Z,85.32
2022-08-10T00:05:05.483Z,85.46
2022-08-10T00:06:07.311Z,85.55
2022-08-10T00:07:09.025Z,85.61
2022-08-10T00:08:10.731Z,85.61
2022-08-10T00:09:12.498Z,85.56
2022-08-10T00:10:16.363Z,85.32
2022-08-10T00:11:18.196Z,85.30
2022-08-10T00:12:20.162Z,85.15
2022-08-10T00:13:23.343Z,85.21
2022-08-10T00:14:25.040Z,85.25
2022-08-10T00:15:53.032Z,85.10
2022-08-10T00:16:49.165Z,84.86
2022-08-10T00:17:50.805Z,84.91
2022-08-10T00:18:52.449Z,85.24
2022-08-10T00:20:04.078Z,85.41
2022-08-10T00:21:10.801Z,85.22
2022-08-10T00:22:12.483Z,85.14
2022-08-10T00:23:18.975Z,85.32
2022-08-10T00:24:20.633Z,85.42
2022-08-10T00:25:22.306Z,85.40
2022-08-10T00:26:24.000Z,85.43
2022-08-10T00:28:00.840Z,85.25
2022-08-10T00:28:48.733Z,85.21
2022-08-10T00:29:50.595Z,85.22
2022-08-10T00:30:52.647Z,85.13
2022-08-10T00:31:57.679Z,85.11
2022-08-10T00:33:01.074Z,85.24
2022-08-10T00:34:02.814Z,85.16
2022-08-10T00:35:05.184Z,85.11
2022-08-10T00:36:07.069Z,84.99
2022-08-10T00:37:08.904Z,85.05
2022-08-10T00:38:10.741Z,85.14
2022-08-10T00:39:15.947Z,85.30
2022-08-10T00:40:18.386Z,85.22
2022-08-10T00:41:37.081Z,85.16
2022-08-10T00:42:38.782Z,85.35
2022-08-10T00:43:40.492Z,85.32
2022-08-10T00:44:47.827Z,85.46
2022-08-10T00:45:59.362Z,85.59
2022-08-10T00:47:02.160Z,85.78
2022-08-10T00:48:04.060Z,85.87
2022-08-10T00:49:06.022Z,86.01
2022-08-10T00:50:09.207Z,86.06
2022-08-10T00:51:11.998Z,86.05
2022-08-10T00:52:16.786Z,86.34
2022-08-10T00:53:18.624Z,86.36
2022-08-10T00:54:24.076Z,86.35
2022-08-10T00:55:27.486Z,86.22
2022-08-10T00:57:14.353Z,86.37
2022-08-10T00:57:55.343Z,86.37
2022-08-10T00:58:57.456Z,86.63
2022-08-10T01:00:00.452Z,86.67
2022-08-10T01:01:02.911Z,86.65
2022-08-10T01:02:08.314Z,86.75
2022-08-10T01:03:13.604Z,87.14
2022-08-10T01:04:40.206Z,87.34
2022-08-10T01:05:52.160Z,87.54
2022-08-10T01:07:22.104Z,87.51
2022-08-10T01:08:40.330Z,87.76
2022-08-10T01:09:55.543Z,87.90
2022-08-10T01:12:28.709Z,88.28
2022-08-10T01:13:20.677Z,88.92
2022-08-10T01:14:35.247Z,89.41
2022-08-10T01:15:51.320Z,89.59
2022-08-10T01:17:03.020Z,90.03
2022-08-10T01:18:08.084Z,90.52
2022-08-10T01:19:42.734Z,90.78
2022-08-10T01:21:14.652Z,90.98
2022-08-10T01:22:29.124Z,90.93
2022-08-10T01:23:45.920Z,91.08
2022-08-10T01:24:56.459Z,91.09
2022-08-10T01:26:12.479Z,91.25
2022-08-10T01:27:34.346Z,91.64
2022-08-10T01:29:03.594Z,91.65
2022-08-10T01:30:09.347Z,91.92
2022-08-10T01:31:20.077Z,92.02
2022-08-10T01:32:31.419Z,92.00
2022-08-10T01:34:02.389Z,92.10
2022-08-10T01:35:33.776Z,92.24
2022-08-10T01:36:45.020Z,92.50
2022-08-10T01:38:03.364Z,92.52
2022-08-10T01:39:07.949Z,92.43
2022-08-10T01:40:13.785Z,92.29
2022-08-10T01:41:46.137Z,92.34
2022-08-10T01:42:51.255Z,92.60
2022-08-10T01:44:07.044Z,93.00
2022-08-10T01:45:13.054Z,93.05
2022-08-10T01:46:17.110Z,93.34
2022-08-10T01:47:42.392Z,93.46
2022-08-10T01:48:51.998Z,93.68
2022-08-10T01:50:03.232Z,93.63
2022-08-10T01:51:08.205Z,93.71
2022-08-10T01:52:10.519Z,93.76
2022-08-10T01:53:41.258Z,93.94
2022-08-10T01:54:45.671Z,93.99
2022-08-10T01:55:49.914Z,94.07
2022-08-10T01:56:57.030Z,94.07
2022-08-10T01:58:03.529Z,93.90
2022-08-10T01:59:15.626Z,93.77
2022-08-10T02:00:19.023Z,93.74
2022-08-10T02:01:25.723Z,93.82
2022-08-10T02:02:31.685Z,93.85
2022-08-10T02:04:04.684Z,93.78
2022-08-10T02:05:05.184Z,93.82
2022-08-10T02:06:12.624Z,93.89
2022-08-10T02:07:19.919Z,93.95
2022-08-10T02:08:24.874Z,94.02
2022-08-10T02:09:31.714Z,93.99
2022-08-10T02:10:37.557Z,94.18
2022-08-10T02:11:55.704Z,94.27
2022-08-10T02:13:04.076Z,94.45
2022-08-10T02:14:08.962Z,94.59
2022-08-10T02:15:16.571Z,94.65
2022-08-10T02:16:23.525Z,94.63
2022-08-10T02:17:59.563Z,94.83
2022-08-10T02:18:55.146Z,94.99
2022-08-10T02:20:03.407Z,95.21
2022-08-10T02:21:08.194Z,95.44
2022-08-10T02:22:45.927Z,95.49
2022-08-10T02:23:39.687Z,95.45
2022-08-10T02:24:45.210Z,95.65
2022-08-10T02:25:50.234Z,95.68
2022-08-10T02:26:59.734Z,95.67
2022-08-10T02:28:05.938Z,95.72
2022-08-10T02:29:11.603Z,95.76
2022-08-10T02:30:14.117Z,95.85
2022-08-10T02:31:23.340Z,95.72
2022-08-10T02:32:38.305Z,95.73
2022-08-10T02:33:57.439Z,95.77
2022-08-10T02:35:04.185Z,95.92
2022-08-10T02:36:11.926Z,95.91
2022-08-10T02:37:14.936Z,95.79
2022-08-10T02:38:23.352Z,95.82
2022-08-10T02:39:45.031Z,95.97
2022-08-10T02:42:18.242Z,95.97
2022-08-10T02:45:23.509Z,96.20
2022-08-10T02:45:23.852Z,96.31
2022-08-10T02:45:30.876Z,96.33
2022-08-10T02:46:41.866Z,96.40
2022-08-10T02:48:06.624Z,96.48
2022-08-10T02:49:18.586Z,96.48
2022-08-10T02:50:35.901Z,96.63
2022-08-10T02:52:06.407Z,96.75
2022-08-10T02:53:55.013Z,96.99
2022-08-10T02:55:17.722Z,96.88
2022-08-10T02:56:28.530Z,97.01
2022-08-10T02:57:38.761Z,97.07
2022-08-10T02:59:40.133Z,97.19
2022-08-10T03:00:50.792Z,97.07
2022-08-10T03:01:59.203Z,97.04
2022-08-10T03:03:05.722Z,96.99
2022-08-10T03:04:17.575Z,97.00
2022-08-10T03:05:20.313Z,96.98
2022-08-10T03:06:29.646Z,97.10
2022-08-10T03:07:43.479Z,97.17
2022-08-10T03:08:49.194Z,97.24
2022-08-10T03:09:54.787Z,97.01
2022-08-10T03:11:01.238Z,96.98
2022-08-10T03:12:37.427Z,97.13
2022-08-10T03:13:32.306Z,96.77
2022-08-10T03:14:37.403Z,96.65
2022-08-10T03:15:41.122Z,96.80
2022-08-10T03:16:46.179Z,96.64
2022-08-10T03:17:57.977Z,96.53
2022-08-10T03:19:04.460Z,96.59
2022-08-10T03:20:38.245Z,96.49
2022-08-10T03:21:31.739Z,96.39
2022-08-10T03:22:36.378Z,96.36
2022-08-10T03:23:41.289Z,96.45
2022-08-10T03:24:44.869Z,96.36
2022-08-10T03:25:52.589Z,96.27
2022-08-10T03:26:57.846Z,96.15
2022-08-10T03:28:01.107Z,96.18
2022-08-10T03:29:06.106Z,96.11
2022-08-10T03:30:27.405Z,96.12
2022-08-10T03:31:32.930Z,96.01
2022-08-10T03:32:36.641Z,95.93
2022-08-10T03:33:43.661Z,95.73
2022-08-10T03:34:46.103Z,95.62
2022-08-10T03:36:40.545Z,95.69
2022-08-10T03:37:10.499Z,95.75
2022-08-10T03:38:12.324Z,95.79
2022-08-10T03:39:14.470Z,95.84
2022-08-10T03:40:16.350Z,95.88
2022-08-10T03:41:24.933Z,95.82
2022-08-10T03:42:30.370Z,95.84
2022-08-10T03:43:34.082Z,95.88
2022-08-10T03:44:37.838Z,95.94
2022-08-10T03:45:55.136Z,95.98
2022-08-10T03:47:01.081Z,96.14
2022-08-10T03:48:05.600Z,96.13
2022-08-10T03:49:09.228Z,96.25
2022-08-10T03:50:28.092Z,96.27
2022-08-10T03:51:36.437Z,96.28
2022-08-10T03:52:39.351Z,96.51
2022-08-10T03:54:05.589Z,96.72
2022-08-10T03:55:04.122Z,96.75
2022-08-10T03:56:28.528Z,96.90
2022-08-10T03:57:30.139Z,97.16
2022-08-10T03:58:32.301Z,97.20
2022-08-10T03:59:36.209Z,97.33
2022-08-10T04:00:38.949Z,97.44
2022-08-10T04:02:46.664Z,97.62
2022-08-10T04:03:08.185Z,97.76
2022-08-10T04:04:11.806Z,97.88
2022-08-10T04:05:16.846Z,97.91
2022-08-10T04:06:18.774Z,97.95
2022-08-10T04:07:20.968Z,98.12
2022-08-10T04:08:22.934Z,98.05
2022-08-10T04:09:43.017Z,98.01
2022-08-10T04:10:52.162Z,98.03
2022-08-10T04:11:53.921Z,97.97
2022-08-10T04:12:56.302Z,97.97
2022-08-10T04:14:00.750Z,97.90
2022-08-10T04:15:02.863Z,97.86
2022-08-10T04:16:07.536Z,97.91
2022-08-10T04:17:13.834Z,97.81
2022-08-10T04:18:16.149Z,97.86
2022-08-10T04:19:19.639Z,97.78
2022-08-10T04:20:35.586Z,97.65
2022-08-10T04:21:43.047Z,97.45
2022-08-10T04:22:53.488Z,97.40
2022-08-10T04:24:00.904Z,97.32
2022-08-10T04:25:05.669Z,97.12
2022-08-10T04:26:07.791Z,96.99
2022-08-10T04:27:10.070Z,96.87
2022-08-10T04:28:12.868Z,96.86
2022-08-10T04:29:15.075Z,96.62
2022-08-10T04:30:17.612Z,96.58
2022-08-10T04:31:21.093Z,96.43
2022-08-10T04:32:25.079Z,96.26
2022-08-10T04:33:31.813Z,96.19
2022-08-10T04:34:35.434Z,95.90
2022-08-10T04:35:39.052Z,95.82
2022-08-10T04:36:42.339Z,95.66
2022-08-10T04:37:47.784Z,95.54
2022-08-10T04:38:51.579Z,95.45
2022-08-10T04:39:53.914Z,95.17
2022-08-10T04:40:56.950Z,95.06
2022-08-10T04:41:59.171Z,95.00
2022-08-10T04:43:10.879Z,94.88
2022-08-10T04:44:14.352Z,94.81
2022-08-10T04:45:16.414Z,94.69
2022-08-10T04:46:55.530Z,94.62
2022-08-10T04:48:00.366Z,94.39
2022-08-10T04:49:02.217Z,94.17
2022-08-10T04:50:07.498Z,94.03
2022-08-10T04:51:17.940Z,93.79
2022-08-10T04:52:21.250Z,93.61
2022-08-10T04:53:27.202Z,93.60
2022-08-10T04:54:29.823Z,93.62
2022-08-10T04:55:31.650Z,93.55
2022-08-10T04:56:36.318Z,93.37
2022-08-10T04:57:38.071Z,93.11
2022-08-10T04:58:39.844Z,93.03
2022-08-10T04:59:41.481Z,92.76
2022-08-10T05:00:43.276Z,92.79
2022-08-10T05:02:27.140Z,92.63
2022-08-10T05:03:06.829Z,92.64
2022-08-10T05:04:34.384Z,92.77
2022-08-10T05:05:30.361Z,92.48
2022-08-10T05:06:32.290Z,92.38
2022-08-10T05:07:53.931Z,92.34
2022-08-10T05:08:55.983Z,92.33
2022-08-10T05:10:04.039Z,92.29
2022-08-10T05:11:08.775Z,92.05
2022-08-10T05:12:10.590Z,92.27
2022-08-10T05:13:12.281Z,92.19
2022-08-10T05:14:14.035Z,92.26
2022-08-10T05:15:18.214Z,91.96
2022-08-10T05:16:31.587Z,91.45
2022-08-10T05:17:35.969Z,91.59
2022-08-10T05:18:37.710Z,91.91
2022-08-10T05:20:04.086Z,91.94
2022-08-10T05:21:01.125Z,92.35
2022-08-10T05:22:05.183Z,91.72
2022-08-10T05:23:07.439Z,91.55
2022-08-10T05:24:09.133Z,91.48
2022-08-10T05:25:14.122Z,91.30
2022-08-10T05:26:16.451Z,91.51
2022-08-10T05:27:18.086Z,91.25
2022-08-10T05:28:19.735Z,91.48
2022-08-10T05:29:25.444Z,91.60
2022-08-10T05:30:27.512Z,91.66
2022-08-10T05:31:29.716Z,91.11
2022-08-10T05:32:55.306Z,90.16
2022-08-10T05:33:54.743Z,89.36
2022-08-10T05:34:56.510Z,88.65
2022-08-10T05:35:59.623Z,88.37
2022-08-10T05:37:02.462Z,88.68
2022-08-10T05:38:10.301Z,88.45
2022-08-10T05:39:16.134Z,88.19
2022-08-10T05:40:18.432Z,88.32
2022-08-10T05:41:20.605Z,87.84
2022-08-10T05:42:23.807Z,87.61
2022-08-10T05:43:25.926Z,87.76
2022-08-10T05:44:28.644Z,88.11
2022-08-10T05:45:30.482Z,88.57
2022-08-10T05:46:32.196Z,88.98
2022-08-10T05:48:54.829Z,89.02
2022-08-10T05:49:00.561Z,89.23
2022-08-10T05:50:03.678Z,88.43
2022-08-10T05:51:07.407Z,88.14
2022-08-10T05:52:09.420Z,87.89
2022-08-10T05:53:59.189Z,87.83
2022-08-10T05:54:34.364Z,87.64
2022-08-10T05:55:36.265Z,87.85
2022-08-10T05:56:55.133Z,87.59
2022-08-10T05:58:01.029Z,87.06
2022-08-10T05:59:02.869Z,87.10
2022-08-10T06:00:36.220Z,87.10
2022-08-10T06:01:39.133Z,87.08
2022-08-10T06:02:44.994Z,87.51
2022-08-10T06:03:54.093Z,86.93
2022-08-10T06:04:59.238Z,87.10
2022-08-10T06:06:04.195Z,86.49
2022-08-10T06:07:07.925Z,86.71
2022-08-10T06:08:20.535Z,86.01
2022-08-10T06:09:25.845Z,85.56
2022-08-10T06:10:32.096Z,84.32
2022-08-10T06:12:28.064Z,84.36
2022-08-10T06:13:27.035Z,84.55
2022-08-10T06:14:59.514Z,84.07
2022-08-10T06:16:09.018Z,83.67
2022-08-10T06:17:12.115Z,83.27
2022-08-10T06:18:15.462Z,83.08
2022-08-10T06:19:17.876Z,83.30
2022-08-10T06:20:19.712Z,83.17
2022-08-10T06:21:21.858Z,82.95
2022-08-10T06:22:25.588Z,82.34
2022-08-10T06:23:30.470Z,82.50
2022-08-10T06:25:04.571Z,82.59
2022-08-10T06:26:11.421Z,81.93
2022-08-10T06:27:15.614Z,81.90
2022-08-10T06:28:20.823Z,81.90
2022-08-10T06:29:24.738Z,82.01
2022-08-10T06:30:29.479Z,81.31
2022-08-10T06:31:47.655Z,81.53
2022-08-10T06:32:56.696Z,81.81
2022-08-10T06:34:01.406Z,81.92
2022-08-10T06:35:08.277Z,81.68
2022-08-10T06:36:12.489Z,81.87
2022-08-10T06:37:19.221Z,81.83
2022-08-10T06:38:26.616Z,81.68
2022-08-10T06:39:34.148Z,81.62
2022-08-10T06:40:43.422Z,82.25
2022-08-10T06:42:14.934Z,81.53
2022-08-10T06:43:18.569Z,80.51
2022-08-10T06:44:29.279Z,80.57
2022-08-10T06:45:41.275Z,80.49
2022-08-10T06:46:49.597Z,80.40
2022-08-10T06:48:02.344Z,80.32
2022-08-10T06:49:07.275Z,80.22
2022-08-10T06:50:55.985Z,79.41
2022-08-10T06:52:02.703Z,78.56
2022-08-10T06:53:12.537Z,78.80
2022-08-10T06:54:18.136Z,78.91
2022-08-10T06:55:39.838Z,78.74
2022-08-10T06:57:08.347Z,77.29
2022-08-10T06:58:13.128Z,77.39
2022-08-10T06:59:54.038Z,77.18
2022-08-10T07:00:57.072Z,76.56
2022-08-10T07:02:12.157Z,76.59
2022-08-10T07:03:18.935Z,75.72
2022-08-10T07:04:56.220Z,75.36
2022-08-10T07:06:02.114Z,75.15
2022-08-10T07:07:07.834Z,74.73
2022-08-10T07:08:12.532Z,74.93
2022-08-10T07:09:18.140Z,74.82
2022-08-10T07:10:22.689Z,74.51
2022-08-10T07:11:27.310Z,74.45
2022-08-10T07:12:34.392Z,74.03
2022-08-10T07:14:14.384Z,73.89
2022-08-10T07:15:03.485Z,73.21
2022-08-10T07:16:10.911Z,73.47
2022-08-10T07:17:16.737Z,73.30
2022-08-10T07:18:20.960Z,72.73
2022-08-10T07:19:25.508Z,73.47
2022-08-10T07:20:28.378Z,73.32
2022-08-10T07:21:32.562Z,73.62
2022-08-10T07:23:27.115Z,74.94
2022-08-10T07:24:00.981Z,75.16
2022-08-10T07:25:06.773Z,73.88
2022-08-10T07:26:09.933Z,72.19
2022-08-10T07:27:13.364Z,72.08
2022-08-10T07:28:17.828Z,72.28
2022-08-10T07:29:26.402Z,71.62
2022-08-10T07:30:46.054Z,70.69
2022-08-10T07:31:56.944Z,70.39
2022-08-10T07:33:02.239Z,70.30
2022-08-10T07:34:07.179Z,70.37
2022-08-10T07:35:13.531Z,69.64
2022-08-10T07:36:19.062Z,68.55
2022-08-10T07:37:25.037Z,68.98
2022-08-10T07:38:31.670Z,69.91
2022-08-10T07:40:02.669Z,68.56
2022-08-10T07:41:03.495Z,68.31
2022-08-10T07:42:09.997Z,67.34
2022-08-10T07:43:15.224Z,66.87
2022-08-10T07:44:19.393Z,67.73
2022-08-10T07:45:21.341Z,67.38
2022-08-10T07:46:28.238Z,67.45
2022-08-10T07:47:46.243Z,67.03
2022-08-10T07:49:16.803Z,68.54
2022-08-10T07:50:25.063Z,67.79
2022-08-10T07:51:31.128Z,67.75
2022-08-10T07:52:35.451Z,67.94
2022-08-10T07:53:43.754Z,66.87
2022-08-10T07:54:49.891Z,66.64
2022-08-10T07:56:03.554Z,67.08
2022-08-10T07:57:30.955Z,66.24
2022-08-10T07:58:51.881Z,64.80
2022-08-10T07:59:59.978Z,64.29
2022-08-10T08:01:01.829Z,63.86
2022-08-10T08:02:07.660Z,63.05
2022-08-10T08:03:13.330Z,62.79
2022-08-10T08:04:19.632Z,62.80
2022-08-10T08:05:29.932Z,62.73
2022-08-10T08:06:49.573Z,63.31
2022-08-10T08:07:53.899Z,63.50
2022-08-10T08:08:58.559Z,63.29
2022-08-10T08:10:03.001Z,62.54
2022-08-10T08:11:06.250Z,62.48
2022-08-10T08:12:11.066Z,62.24
2022-08-10T08:13:14.881Z,62.33
2022-08-10T08:14:19.085Z,61.57
2022-08-10T08:16:20.403Z,60.94
2022-08-10T08:16:51.646Z,61.60
2022-08-10T08:18:00.818Z,60.74
2022-08-10T08:19:26.431Z,61.01
2022-08-10T08:20:26.430Z,60.95
2022-08-10T08:24:07.380Z,60.27
2022-08-10T08:24:10.686Z,60.89
2022-08-10T08:24:30.487Z,61.13
2022-08-10T08:25:36.688Z,61.02
2022-08-10T08:26:39.231Z,60.99
2022-08-10T08:27:47.602Z,60.76
2022-08-10T08:28:51.108Z,59.94
2022-08-10T08:29:54.326Z,59.32
2022-08-10T08:30:58.894Z,58.89
2022-08-10T08:32:03.729Z,59.46
2022-08-10T08:33:09.757Z,58.39
2022-08-10T08:34:22.988Z,58.02
2022-08-10T08:35:26.766Z,58.99
2022-08-10T08:36:30.824Z,58.71
2022-08-10T08:38:31.781Z,57.52
2022-08-10T08:38:56.795Z,55.99
2022-08-10T08:39:58.689Z,55.73
2022-08-10T08:41:22.182Z,55.46
2022-08-10T08:42:42.575Z,56.75
2022-08-10T08:43:59.454Z,57.20
2022-08-10T08:45:23.329Z,56.16
2022-08-10T08:46:59.272Z,56.97
2022-08-10T08:48:11.408Z,56.00
2022-08-10T08:50:04.752Z,55.83
2022-08-10T08:51:01.738Z,57.56
2022-08-10T08:52:29.108Z,56.29
2022-08-10T08:54:07.931Z,56.14
2022-08-10T08:56:05.028Z,57.73
2022-08-10T08:57:22.929Z,58.02
2022-08-10T08:58:54.370Z,57.89
2022-08-10T09:00:14.425Z,59.11
2022-08-10T09:01:53.130Z,58.57
2022-08-10T09:03:28.430Z,55.84
2022-08-10T09:05:09.503Z,56.04
2022-08-10T09:06:45.776Z,56.88
2022-08-10T09:08:02.178Z,56.67
2022-08-10T09:09:35.574Z,55.26
2022-08-10T09:10:46.090Z,54.59
2022-08-10T09:12:08.838Z,54.98
2022-08-10T09:13:42.642Z,55.51
2022-08-10T09:15:05.884Z,56.42
2022-08-10T09:16:35.148Z,54.83
2022-08-10T09:17:59.850Z,54.35
2022-08-10T09:19:19.655Z,54.32
2022-08-10T09:20:45.807Z,55.49
2022-08-10T09:22:18.231Z,56.47
2022-08-10T09:24:20.205Z,55.73
2022-08-10T09:25:26.169Z,53.73
2022-08-10T09:26:42.948Z,53.17
2022-08-10T09:27:49.614Z,54.05
2022-08-10T09:29:12.302Z,53.99
2022-08-10T09:30:32.178Z,53.50
2022-08-10T09:32:55.002Z,52.82
2022-08-10T09:36:20.836Z,52.82
2022-08-10T09:36:24.065Z,54.52
2022-08-10T09:36:31.984Z,51.59
2022-08-10T09:38:01.937Z,53.18
2022-08-10T09:40:06.860Z,52.76
2022-08-10T09:41:16.350Z,52.14
2022-08-10T09:42:42.504Z,51.80
2022-08-10T09:44:01.799Z,51.65
2022-08-10T09:45:15.231Z,52.52
2022-08-10T09:46:46.908Z,53.02
2022-08-10T09:48:13.220Z,52.46
2022-08-10T09:49:54.829Z,51.72
2022-08-10T09:51:46.338Z,51.18
2022-08-10T09:53:10.956Z,50.40
2022-08-10T09:54:46.649Z,50.40
2022-08-10T09:56:29.735Z,50.82
2022-08-10T09:57:48.455Z,49.49
2022-08-10T09:59:27.262Z,50.10
2022-08-10T10:00:23.381Z,49.01
2022-08-10T10:02:03.457Z,48.81
2022-08-10T10:03:17.048Z,48.57
2022-08-10T10:04:33.244Z,49.92
2022-08-10T10:05:59.428Z,48.31
2022-08-10T10:07:10.599Z,48.63
2022-08-10T10:08:43.947Z,49.20
2022-08-10T10:10:07.660Z,49.61
2022-08-10T10:11:21.265Z,48.53
2022-08-10T10:13:09.246Z,47.69
2022-08-10T10:14:19.510Z,46.60
2022-08-10T10:15:33.788Z,46.60
2022-08-10T10:17:03.501Z,45.42
2022-08-10T10:18:19.901Z,46.36
2022-08-10T10:20:11.075Z,47.01
2022-08-10T10:21:54.748Z,48.59
2022-08-10T10:23:40.651Z,48.35
2022-08-10T10:24:52.734Z,48.57
2022-08-10T10:26:08.435Z,47.93
2022-08-10T10:27:47.987Z,49.52
2022-08-10T10:29:55.796Z,49.13
2022-08-10T10:31:16.822Z,47.46
2022-08-10T10:32:42.184Z,47.79
2022-08-10T10:34:02.189Z,47.54
2022-08-10T10:35:12.771Z,48.42
2022-08-10T10:36:17.745Z,48.31
2022-08-10T10:37:22.175Z,48.21
2022-08-10T10:38:47.203Z,49.41
2022-08-10T10:39:54.628Z,50.04
2022-08-10T10:41:15.057Z,50.07
2022-08-10T10:42:46.879Z,50.53
2022-08-10T10:44:27.483Z,51.05
2022-08-10T10:45:58.486Z,52.00
2022-08-10T10:47:26.152Z,52.30
2022-08-10T10:48:52.598Z,53.33
2022-08-10T10:50:22.536Z,51.71
2022-08-10T10:51:34.164Z,50.22
2022-08-10T10:53:03.105Z,50.62
2022-08-10T10:54:32.525Z,48.61
2022-08-10T10:56:14.312Z,47.71
2022-08-10T10:57:59.088Z,47.85
2022-08-10T10:59:53.533Z,46.67
2022-08-10T11:00:46.321Z,45.20
2022-08-10T11:02:01.075Z,46.10
2022-08-10T11:03:27.560Z,45.11
2022-08-10T11:05:03.232Z,43.80
2022-08-10T11:06:40.611Z,43.67
2022-08-10T11:07:54.929Z,43.40
2022-08-10T11:09:03.474Z,42.10
2022-08-10T11:10:32.824Z,42.55
2022-08-10T11:12:00.760Z,40.34
2022-08-10T11:14:24.501Z,41.32
2022-08-10T11:15:10.109Z,39.47
2022-08-10T11:16:28.815Z,39.11
2022-08-10T11:17:39.047Z,38.39
2022-08-10T11:19:13.581Z,38.66
2022-08-10T11:20:25.918Z,38.55
2022-08-10T11:21:54.731Z,39.96
2022-08-10T11:23:22.263Z,37.35
2022-08-10T11:24:56.400Z,38.52
2022-08-10T11:26:10.594Z,38.52
2022-08-10T11:27:37.797Z,37.77
2022-08-10T11:28:54.360Z,37.77
2022-08-10T11:30:03.645Z,38.06
2022-08-10T11:31:33.738Z,38.85
2022-08-10T11:32:50.902Z,39.30
2022-08-10T11:34:47.546Z,40.02
2022-08-10T11:36:01.437Z,39.57
2022-08-10T11:37:15.302Z,39.68
2022-08-10T11:39:13.490Z,39.24
2022-08-10T11:40:24.907Z,37.49
2022-08-10T11:42:12.553Z,36.85
2022-08-10T11:43:26.234Z,37.60
2022-08-10T11:45:02.681Z,36.51
2022-08-10T11:46:33.726Z,36.22
2022-08-10T11:47:52.665Z,35.26
2022-08-10T11:49:10.788Z,35.14
2022-08-10T11:50:32.331Z,34.91
2022-08-10T11:51:49.075Z,36.01
2022-08-10T11:53:09.908Z,37.37
2022-08-10T11:54:25.961Z,36.26
2022-08-10T11:55:32.927Z,37.08
2022-08-10T11:56:59.934Z,36.29
2022-08-10T11:58:31.120Z,33.65
2022-08-10T11:59:58.293Z,34.18
2022-08-10T12:01:07.038Z,34.35
2022-08-10T12:02:14.659Z,33.82
2022-08-10T12:03:19.449Z,33.18
2022-08-10T12:04:23.800Z,34.95
2022-08-10T12:05:51.638Z,35.05
2022-08-10T12:06:59.368Z,33.68
2022-08-10T12:08:54.807Z,35.44
2022-08-10T12:10:10.939Z,35.02
2022-08-10T12:10:52.064Z,34.82
2022-08-10T12:11:55.036Z,34.33
2022-08-10T12:13:15.377Z,34.02
2022-08-10T12:14:26.097Z,33.00
2022-08-10T12:15:40.712Z,32.35
2022-08-10T12:16:49.025Z,32.46
2022-08-10T12:17:57.564Z,32.75
2022-08-10T12:19:05.649Z,32.28
2022-08-10T12:20:09.628Z,31.72
2022-08-10T12:21:37.968Z,30.91
2022-08-10T12:22:57.426Z,32.49
2022-08-10T12:24:12.808Z,32.56
2022-08-10T12:25:57.630Z,32.09
2022-08-10T12:27:13.311Z,31.22
2022-08-10T12:28:49.284Z,31.75
2022-08-10T12:29:59.091Z,29.67
2022-08-10T12:31:03.665Z,29.15
2022-08-10T12:32:25.492Z,30.92
2022-08-10T12:34:02.566Z,31.65
2022-08-10T12:35:17.975Z,31.48
2022-08-10T12:36:32.345Z,31.46
2022-08-10T12:38:07.076Z,30.90
2022-08-10T12:39:28.228Z,31.66
2022-08-10T12:40:37.301Z,31.89
2022-08-10T12:41:57.076Z,32.45
2022-08-10T12:44:07.806Z,33.25
2022-08-10T12:44:41.513Z,34.20
2022-08-10T12:46:06.565Z,34.69
2022-08-10T12:47:22.610Z,35.83
2022-08-10T12:48:36.692Z,36.20
2022-08-10T12:50:23.779Z,36.25
2022-08-10T12:51:32.460Z,36.34
2022-08-10T12:52:50.668Z,36.66
2022-08-10T12:54:11.331Z,37.37
2022-08-10T12:55:14.657Z,38.34
2022-08-10T12:56:41.379Z,39.44
2022-08-10T12:57:43.909Z,39.94
2022-08-10T12:59:00.020Z,40.36
2022-08-10T13:00:06.558Z,40.54
2022-08-10T13:01:23.391Z,40.02
2022-08-10T13:02:29.942Z,40.03
2022-08-10T13:04:21.297Z,39.20
2022-08-10T13:05:02.437Z,40.08
2022-08-10T13:06:07.221Z,37.88
2022-08-10T13:07:10.677Z,36.30
2022-08-10T13:08:52.947Z,36.03
2022-08-10T13:10:05.461Z,35.18
2022-08-10T13:12:18.256Z,34.34
2022-08-10T13:12:40.566Z,33.83
2022-08-10T13:13:49.372Z,33.25
2022-08-10T13:14:59.771Z,33.81
2022-08-10T13:16:03.232Z,33.57
2022-08-10T13:17:08.046Z,34.16
2022-08-10T13:18:18.428Z,34.30
2022-08-10T13:19:22.644Z,35.23
2022-08-10T13:20:29.889Z,35.85
2022-08-10T13:21:37.773Z,35.05
2022-08-10T13:22:42.515Z,34.94
2022-08-10T13:24:04.126Z,33.92
2022-08-10T13:25:10.105Z,33.52
2022-08-10T13:26:17.658Z,32.47
2022-08-10T13:27:59.796Z,32.14
2022-08-10T13:28:55.042Z,32.36
2022-08-10T13:30:05.270Z,30.97
2022-08-10T13:31:16.998Z,30.11
2022-08-10T13:32:30.520Z,30.15
2022-08-10T13:34:40.944Z,29.65
2022-08-10T13:35:00.946Z,30.00
2022-08-10T13:36:04.105Z,29.75
2022-08-10T13:37:09.360Z,29.88
2022-08-10T13:38:20.241Z,30.29
2022-08-10T13:39:26.018Z,31.39
2022-08-10T13:40:31.222Z,30.19
2022-08-10T13:41:39.724Z,30.28
2022-08-10T13:42:42.293Z,29.81
2022-08-10T13:43:52.509Z,29.80
2022-08-10T13:44:58.629Z,29.60
2022-08-10T13:46:02.905Z,29.44
2022-08-10T13:47:06.951Z,29.53
2022-08-10T13:48:18.539Z,29.57
2022-08-10T13:49:21.896Z,30.23
2022-08-10T13:50:34.969Z,29.28
2022-08-10T13:51:53.823Z,28.93
2022-08-10T13:53:01.629Z,30.46
2022-08-10T13:54:07.511Z,28.55
2022-08-10T13:55:15.969Z,28.88
2022-08-10T13:56:21.409Z,28.59
2022-08-10T13:57:33.671Z,28.62
2022-08-10T13:58:41.509Z,28.26
2022-08-10T14:00:36.650Z,28.32
2022-08-10T14:01:17.296Z,28.71
2022-08-10T14:02:27.135Z,29.25
2022-08-10T14:03:37.723Z,29.24
2022-08-10T14:04:44.932Z,29.51
2022-08-10T14:05:52.533Z,29.48
2022-08-10T14:06:59.342Z,29.23
2022-08-10T14:08:04.314Z,29.84
2022-08-10T14:09:11.550Z,29.10
2022-08-10T14:10:16.656Z,28.75
2022-08-10T14:11:21.293Z,28.87
2022-08-10T14:12:33.485Z,29.29
2022-08-10T14:13:40.800Z,28.91
2022-08-10T14:14:45.225Z,28.99
2022-08-10T14:15:57.349Z,29.60
2022-08-10T14:17:01.811Z,29.49
2022-08-10T14:18:07.013Z,28.46
2022-08-10T14:19:16.569Z,28.06
2022-08-10T14:20:21.874Z,27.72
2022-08-10T14:21:24.528Z,28.32
2022-08-10T14:22:33.804Z,28.50
2022-08-10T14:23:42.528Z,28.06
2022-08-10T14:25:06.541Z,27.50
2022-08-10T14:26:11.073Z,27.32
2022-08-10T14:27:22.719Z,27.35
2022-08-10T14:28:34.257Z,26.85
2022-08-10T14:29:49.298Z,27.77
2022-08-10T14:31:11.789Z,28.56
2022-08-10T14:32:18.593Z,29.30
2022-08-10T14:33:24.467Z,29.76
2022-08-10T14:36:16.406Z,30.11
2022-08-10T14:36:18.995Z,30.59
2022-08-10T14:37:38.052Z,32.07
2022-08-10T14:38:45.125Z,32.53
2022-08-10T14:39:58.639Z,32.60
2022-08-10T14:41:04.792Z,33.67
2022-08-10T14:42:26.855Z,34.23
2022-08-10T14:43:41.328Z,34.63
2022-08-10T14:44:55.454Z,34.91
2022-08-10T14:46:04.078Z,35.51
2022-08-10T14:47:52.275Z,35.42
2022-08-10T14:48:39.820Z,34.88
2022-08-10T14:49:58.218Z,34.71
2022-08-10T14:51:03.020Z,34.92
2022-08-10T14:52:06.424Z,34.21
2022-08-10T14:53:15.368Z,34.19
2022-08-10T14:54:23.464Z,33.93
2022-08-10T14:55:29.116Z,33.91
2022-08-10T14:56:33.680Z,33.94
2022-08-10T14:58:19.292Z,33.59
2022-08-10T14:59:07.622Z,32.86
2022-08-10T15:00:29.444Z,32.58
2022-08-10T15:02:00.623Z,32.90
2022-08-10T15:03:11.150Z,32.52
2022-08-10T15:04:32.902Z,32.56
2022-08-10T15:05:39.583Z,31.53
2022-08-10T15:06:59.787Z,31.87
2022-08-10T15:08:03.509Z,31.29
2022-08-10T15:09:19.765Z,30.22
2022-08-10T15:10:24.264Z,29.68
2022-08-10T15:12:15.514Z,30.32
2022-08-10T15:12:58.720Z,29.52
2022-08-10T15:14:38.739Z,29.76
2022-08-10T15:15:28.997Z,30.25
2022-08-10T15:16:34.264Z,29.05
2022-08-10T15:17:39.630Z,28.32
2022-08-10T15:18:58.171Z,28.48
2022-08-10T15:20:13.481Z,28.27
2022-08-10T15:21:17.817Z,28.38
2022-08-10T15:22:37.118Z,28.67
2022-08-10T15:24:05.123Z,28.70
2022-08-10T15:25:18.022Z,29.02
2022-08-10T15:26:27.519Z,28.79
2022-08-10T15:27:53.390Z,28.84
2022-08-10T15:29:23.634Z,29.11
2022-08-10T15:30:31.373Z,28.26
2022-08-10T15:31:56.247Z,28.97
2022-08-10T15:34:02.606Z,28.39
2022-08-10T15:35:06.146Z,28.21
2022-08-10T15:36:32.972Z,27.52
2022-08-10T15:37:39.892Z,28.35
2022-08-10T15:38:46.343Z,27.88
2022-08-10T15:40:24.959Z,26.95
2022-08-10T15:41:21.167Z,26.23
2022-08-10T15:42:58.449Z,28.03